Time;durP1;ratioP1;P1;durP2;ratioP2;P2;SDS_P1;SDS_P2;PMS_P1;PMS_P2;Temp;Humidity;BMP_temperature;BMP_pressure;BME280_temperature;BME280_humidity;BME280_pressure;Samples;Min_cycle;Max_cycle;Signal;HPM_P1;HPM_P2
2022/11/07 00:01:12;;;;;;;15.00;8.80;;;;;;;;;;5054668;28;20047;-73
2022/11/07 00:03:38;;;;;;;13.00;8.65;;;;;;;;;;5056334;28;20049;-72
2022/11/07 00:06:04;;;;;;;12.80;8.48;;;;;;;;;;5056117;28;20401;-72
2022/11/07 00:08:30;;;;;;;13.18;8.23;;;;;;;;;;5063223;28;20044;-72
2022/11/07 00:10:57;;;;;;;12.25;7.43;;;;;;;;;;5071858;28;20087;-78
2022/11/07 00:13:25;;;;;;;14.52;7.70;;;;;;;;;;5068351;28;20039;-77
2022/11/07 00:15:51;;;;;;;18.13;8.23;;;;;;;;;;5070385;28;20124;-78
2022/11/07 00:18:17;;;;;;;14.57;7.80;;;;;;;;;;5060060;28;20040;-78
2022/11/07 00:20:43;;;;;;;15.85;8.00;;;;;;;;;;5072097;28;20097;-78
2022/11/07 00:23:10;;;;;;;14.77;7.13;;;;;;;;;;5051789;28;20043;-78
2022/11/07 00:25:36;;;;;;;11.30;7.00;;;;;;;;;;5059341;28;20037;-72
2022/11/07 00:28:02;;;;;;;14.02;7.22;;;;;;;;;;5062278;28;20040;-72
2022/11/07 00:30:28;;;;;;;15.13;7.28;;;;;;;;;;5070797;28;20039;-72
2022/11/07 00:32:54;;;;;;;12.57;7.10;;;;;;;;;;5070260;28;20040;-73
2022/11/07 00:35:20;;;;;;;12.73;6.93;;;;;;;;;;5093188;28;20040;-73
2022/11/07 00:37:46;;;;;;;10.52;6.97;;;;;;;;;;5068422;28;20512;-73
2022/11/07 00:40:12;;;;;;;14.88;7.70;;;;;;;;;;5064056;28;20029;-73
2022/11/07 00:42:38;;;;;;;14.13;7.30;;;;;;;;;;5054022;28;20059;-78
2022/11/07 00:45:04;;;;;;;16.42;7.70;;;;;;;;;;5061874;28;20105;-77
2022/11/07 00:47:30;;;;;;;13.07;7.63;;;;;;;;;;5067004;28;20047;-79
2022/11/07 00:49:56;;;;;;;13.52;7.38;;;;;;;;;;5050938;28;20481;-78
2022/11/07 00:52:22;;;;;;;13.68;6.85;;;;;;;;;;5035201;28;20125;-77
2022/11/07 00:54:48;;;;;;;15.15;7.07;;;;;;;;;;5055203;28;20056;-78
2022/11/07 00:57:14;;;;;;;12.32;7.05;;;;;;;;;;5067709;28;20124;-78
2022/11/07 00:59:41;;;;;;;13.20;7.70;;;;;;;;;;5061007;28;20041;-77
2022/11/07 01:02:07;;;;;;;12.35;6.97;;;;;;;;;;5065617;28;20051;-76
2022/11/07 01:07:18;;;;;;;13.07;7.10;;;;;;;;;;5064391;28;20044;-73
2022/11/07 01:09:44;;;;;;;15.15;7.38;;;;;;;;;;5065775;28;20056;-72
2022/11/07 01:12:10;;;;;;;13.23;6.43;;;;;;;;;;5103936;28;20512;-72
2022/11/07 01:14:36;;;;;;;19.25;7.82;;;;;;;;;;5070581;28;20474;-73
2022/11/07 01:17:02;;;;;;;12.02;7.18;;;;;;;;;;5040938;28;20125;-73
2022/11/07 01:19:28;;;;;;;13.82;6.40;;;;;;;;;;5069436;28;20501;-73
2022/11/07 01:21:54;;;;;;;14.57;6.03;;;;;;;;;;5095178;28;20052;-74
2022/11/07 01:24:20;;;;;;;14.50;6.30;;;;;;;;;;5070360;28;20497;-78
2022/11/07 01:26:47;;;;;;;12.20;5.90;;;;;;;;;;5064082;28;20048;-77
2022/11/07 01:29:13;;;;;;;11.00;5.85;;;;;;;;;;5018410;28;20051;-78
2022/11/07 01:31:40;;;;;;;13.10;6.05;;;;;;;;;;5064236;28;20041;-79
2022/11/07 01:34:06;;;;;;;11.80;6.00;;;;;;;;;;5061353;28;20037;-78
2022/11/07 01:36:32;;;;;;;12.50;5.35;;;;;;;;;;5060643;28;20045;-77
2022/11/07 01:38:58;;;;;;;16.38;6.25;;;;;;;;;;5060278;28;20040;-78
2022/11/07 01:41:26;;;;;;;16.27;5.68;;;;;;;;;;5065987;28;20041;-78
2022/11/07 01:43:55;;;;;;;14.95;5.85;;;;;;;;;;5069785;28;20037;-73
2022/11/07 01:46:23;;;;;;;12.02;5.43;;;;;;;;;;5070093;28;20482;-73
2022/11/07 01:48:54;;;;;;;11.77;5.78;;;;;;;;;;5063250;28;20127;-73
2022/11/07 01:51:21;;;;;;;13.88;5.68;;;;;;;;;;5072824;28;20128;-73
2022/11/07 01:53:47;;;;;;;15.00;5.78;;;;;;;;;;5058738;28;20041;-72
2022/11/07 01:56:15;;;;;;;10.05;5.15;;;;;;;;;;5073492;28;20084;-74
2022/11/07 01:58:42;;;;;;;15.38;5.30;;;;;;;;;;5068431;28;20048;-78
2022/11/07 02:01:08;;;;;;;11.15;5.28;;;;;;;;;;5073211;28;20102;-79
2022/11/07 02:03:34;;;;;;;16.15;5.57;;;;;;;;;;5044282;28;20040;-79
2022/11/07 02:06:03;;;;;;;16.30;6.05;;;;;;;;;;5072935;28;20036;-74
2022/11/07 02:08:30;;;;;;;9.23;5.13;;;;;;;;;;5072399;28;20729;-73
2022/11/07 02:10:58;;;;;;;16.70;6.25;;;;;;;;;;5072988;28;20044;-74
2022/11/07 02:13:29;;;;;;;11.98;5.40;;;;;;;;;;5064184;28;20564;-74
2022/11/07 02:15:55;;;;;;;13.52;5.60;;;;;;;;;;5072309;28;20085;-78
2022/11/07 02:18:22;;;;;;;9.40;5.03;;;;;;;;;;5107274;28;20497;-79
2022/11/07 02:20:48;;;;;;;11.10;5.22;;;;;;;;;;5058410;28;20036;-78
2022/11/07 02:23:23;;;;;;;14.70;5.00;;;;;;;;;;5053074;28;20049;-79
2022/11/07 02:25:49;;;;;;;13.90;4.55;;;;;;;;;;5069599;28;20145;-79
2022/11/07 02:28:16;;;;;;;10.57;5.30;;;;;;;;;;5051160;28;20048;-79
2022/11/07 02:30:42;;;;;;;14.82;4.70;;;;;;;;;;5055902;28;20040;-78
2022/11/07 02:33:22;;;;;;;14.43;4.70;;;;;;;;;;5072724;28;20041;-77
2022/11/07 02:35:50;;;;;;;13.18;4.78;;;;;;;;;;5068009;28;20119;-78
2022/11/07 02:38:22;;;;;;;12.57;4.32;;;;;;;;;;5072527;28;20082;-78
2022/11/07 02:40:54;;;;;;;12.60;4.20;;;;;;;;;;5042019;28;20045;-73
2022/11/07 02:43:22;;;;;;;10.55;4.68;;;;;;;;;;5046573;28;20818;-74
2022/11/07 02:45:49;;;;;;;10.23;4.10;;;;;;;;;;5057319;28;20036;-75
2022/11/07 02:48:15;;;;;;;11.27;4.00;;;;;;;;;;5055166;28;20089;-74
2022/11/07 02:50:41;;;;;;;10.57;3.50;;;;;;;;;;5069389;28;20127;-74
2022/11/07 02:53:07;;;;;;;13.32;3.65;;;;;;;;;;5053081;28;20041;-74
2022/11/07 02:55:33;;;;;;;14.93;4.05;;;;;;;;;;5064122;28;20037;-74
2022/11/07 02:57:59;;;;;;;10.50;4.20;;;;;;;;;;5067797;28;20051;-78
2022/11/07 03:00:25;;;;;;;15.07;4.25;;;;;;;;;;5052656;28;20064;-79
2022/11/07 03:02:52;;;;;;;10.10;3.83;;;;;;;;;;5055040;28;20090;-79
2022/11/07 03:05:19;;;;;;;10.25;3.40;;;;;;;;;;5057897;28;20071;-78
2022/11/07 03:07:46;;;;;;;12.90;3.85;;;;;;;;;;5055453;28;20044;-74
2022/11/07 03:10:12;;;;;;;11.73;3.80;;;;;;;;;;5036543;28;20501;-74
2022/11/07 03:12:38;;;;;;;11.50;3.92;;;;;;;;;;5068100;28;20134;-74
2022/11/07 03:15:05;;;;;;;10.27;3.80;;;;;;;;;;5071780;28;20046;-74
2022/11/07 03:17:31;;;;;;;13.40;3.80;;;;;;;;;;5060801;28;20508;-74
2022/11/07 03:19:57;;;;;;;15.20;4.07;;;;;;;;;;5045127;28;20033;-78
2022/11/07 03:22:23;;;;;;;11.95;5.13;;;;;;;;;;5050207;28;20508;-74
2022/11/07 03:24:49;;;;;;;11.70;4.20;;;;;;;;;;5071610;28;20040;-74
2022/11/07 03:27:15;;;;;;;15.10;4.35;;;;;;;;;;5062424;28;20072;-74
2022/11/07 03:29:42;;;;;;;11.98;4.10;;;;;;;;;;5039157;28;20659;-74
2022/11/07 03:32:08;;;;;;;17.20;4.70;;;;;;;;;;5071186;28;20064;-74
2022/11/07 03:34:34;;;;;;;13.18;4.22;;;;;;;;;;5058996;28;20090;-74
2022/11/07 03:37:00;;;;;;;15.07;4.05;;;;;;;;;;5069073;28;20048;-74
2022/11/07 03:39:26;;;;;;;16.08;4.47;;;;;;;;;;5067996;28;20048;-74
2022/11/07 03:41:52;;;;;;;11.68;4.47;;;;;;;;;;5071288;28;20090;-74
2022/11/07 03:44:18;;;;;;;13.27;4.75;;;;;;;;;;5061631;28;20045;-74
2022/11/07 03:46:44;;;;;;;10.15;3.83;;;;;;;;;;5071422;28;20051;-74
2022/11/07 03:49:10;;;;;;;12.55;4.20;;;;;;;;;;5067760;28;20109;-78
2022/11/07 03:51:36;;;;;;;25.58;4.72;;;;;;;;;;5070902;28;20044;-78
2022/11/07 03:54:02;;;;;;;8.90;3.85;;;;;;;;;;5069168;28;20063;-79
2022/11/07 03:56:28;;;;;;;11.43;3.95;;;;;;;;;;5051449;28;20477;-78
2022/11/07 03:58:55;;;;;;;16.23;3.85;;;;;;;;;;5061555;28;20103;-78
2022/11/07 04:01:21;;;;;;;15.07;4.57;;;;;;;;;;5049331;28;20037;-74
2022/11/07 04:03:47;;;;;;;17.63;4.45;;;;;;;;;;5071292;28;20068;-74
2022/11/07 04:06:13;;;;;;;14.77;4.30;;;;;;;;;;5066678;28;20037;-78
2022/11/07 04:08:39;;;;;;;16.35;4.38;;;;;;;;;;5067660;28;20552;-78
2022/11/07 04:11:05;;;;;;;12.50;4.30;;;;;;;;;;5051937;28;20489;-78
2022/11/07 04:19:03;;;;;;;14.23;4.45;;;;;;;;;;5069829;28;20489;-78
2022/11/07 04:21:29;;;;;;;15.93;4.82;;;;;;;;;;5060156;28;20520;-78
2022/11/07 04:23:55;;;;;;;16.52;4.78;;;;;;;;;;5071101;28;20497;-78
2022/11/07 04:29:06;;;;;;;13.98;5.40;;;;;;;;;;5044935;28;20041;-78
2022/11/07 04:31:32;;;;;;;16.98;5.20;;;;;;;;;;5041398;28;20103;-74
2022/11/07 04:33:58;;;;;;;17.92;5.15;;;;;;;;;;5064903;28;20047;-74
2022/11/07 04:36:24;;;;;;;12.65;4.85;;;;;;;;;;5064443;28;20067;-75
2022/11/07 04:38:50;;;;;;;15.25;4.93;;;;;;;;;;5062945;28;20401;-78
2022/11/07 04:41:20;;;;;;;14.13;4.90;;;;;;;;;;5039910;28;20094;-78
2022/11/07 04:43:46;;;;;;;13.93;4.68;;;;;;;;;;5070769;28;20047;-79
2022/11/07 04:46:13;;;;;;;12.40;5.22;;;;;;;;;;5053794;28;20094;-78
2022/11/07 04:48:39;;;;;;;13.13;4.55;;;;;;;;;;5042303;28;20040;-77
2022/11/07 04:51:05;;;;;;;12.20;4.30;;;;;;;;;;5048946;28;20075;-78
2022/11/07 04:53:31;;;;;;;11.18;4.60;;;;;;;;;;5070304;28;20074;-74
2022/11/07 04:55:57;;;;;;;19.23;5.57;;;;;;;;;;5053959;28;20049;-74
2022/11/07 04:58:23;;;;;;;11.20;4.60;;;;;;;;;;5044412;28;20052;-73
2022/11/07 05:00:49;;;;;;;12.43;4.55;;;;;;;;;;5039449;28;20092;-74
2022/11/07 05:03:15;;;;;;;12.82;4.80;;;;;;;;;;5063489;28;20048;-73
2022/11/07 05:05:41;;;;;;;13.38;4.57;;;;;;;;;;5058842;28;20041;-74
2022/11/07 05:08:08;;;;;;;14.27;4.25;;;;;;;;;;5064330;28;20060;-74
2022/11/07 05:10:34;;;;;;;15.10;4.90;;;;;;;;;;5053345;28;20041;-74
2022/11/07 05:13:00;;;;;;;9.52;4.63;;;;;;;;;;5050495;28;20076;-74
2022/11/07 05:15:26;;;;;;;10.48;4.55;;;;;;;;;;5070131;28;20049;-74
2022/11/07 05:17:52;;;;;;;12.50;4.82;;;;;;;;;;5070024;28;20043;-74
2022/11/07 05:20:27;;;;;;;13.85;4.97;;;;;;;;;;5052597;28;20087;-74
2022/11/07 05:23:13;;;;;;;11.75;4.72;;;;;;;;;;5037273;28;20048;-73
2022/11/07 05:25:53;;;;;;;11.07;4.50;;;;;;;;;;5068998;28;20075;-74
2022/11/07 05:28:19;;;;;;;9.38;4.50;;;;;;;;;;5052061;28;20049;-74
2022/11/07 05:30:45;;;;;;;12.10;5.10;;;;;;;;;;5067776;28;20036;-74
2022/11/07 05:33:13;;;;;;;14.63;4.60;;;;;;;;;;5056538;28;20033;-74
2022/11/07 05:35:39;;;;;;;12.18;4.65;;;;;;;;;;5067605;28;20042;-74
2022/11/07 05:38:05;;;;;;;12.38;4.72;;;;;;;;;;5107738;28;20040;-74
2022/11/07 05:40:35;;;;;;;12.90;4.30;;;;;;;;;;5060367;28;20506;-74
2022/11/07 05:43:02;;;;;;;14.75;4.80;;;;;;;;;;5072296;28;20169;-74
2022/11/07 05:45:29;;;;;;;15.48;4.80;;;;;;;;;;5065300;28;20055;-78
2022/11/07 05:48:02;;;;;;;14.55;4.90;;;;;;;;;;5073651;28;20040;-78
2022/11/07 05:50:29;;;;;;;13.63;5.05;;;;;;;;;;5048810;28;20474;-78
2022/11/07 05:52:55;;;;;;;14.90;4.93;;;;;;;;;;5067797;28;20044;-77
2022/11/07 05:55:22;;;;;;;14.15;5.05;;;;;;;;;;5044627;28;20043;-78
2022/11/07 05:57:48;;;;;;;13.43;5.03;;;;;;;;;;5074171;28;20513;-78
2022/11/07 06:00:15;;;;;;;17.95;5.25;;;;;;;;;;5071454;28;20048;-78
2022/11/07 06:02:41;;;;;;;18.58;5.47;;;;;;;;;;5065776;28;20409;-76
2022/11/07 06:05:08;;;;;;;13.32;4.75;;;;;;;;;;5070886;28;20044;-77
2022/11/07 06:07:35;;;;;;;18.17;5.50;;;;;;;;;;5064327;28;20044;-76
2022/11/07 06:10:01;;;;;;;18.45;5.97;;;;;;;;;;5067483;28;20072;-76
2022/11/07 06:12:27;;;;;;;16.52;6.63;;;;;;;;;;5061590;28;20047;-76
2022/11/07 06:14:53;;;;;;;17.95;7.20;;;;;;;;;;5072733;28;20037;-76
2022/11/07 06:17:20;;;;;;;21.83;7.13;;;;;;;;;;5069815;28;20051;-76
2022/11/07 06:19:46;;;;;;;19.42;7.53;;;;;;;;;;5056503;28;20086;-76
2022/11/07 06:22:12;;;;;;;22.65;7.25;;;;;;;;;;5048581;28;20418;-75
2022/11/07 06:24:38;;;;;;;17.98;7.47;;;;;;;;;;5074064;28;20443;-76
2022/11/07 06:27:04;;;;;;;24.45;7.68;;;;;;;;;;5060010;28;20390;-76
2022/11/07 06:29:30;;;;;;;22.15;8.05;;;;;;;;;;5046459;28;20036;-76
2022/11/07 06:31:56;;;;;;;28.65;8.45;;;;;;;;;;5070898;28;20040;-76
2022/11/07 06:34:22;;;;;;;23.42;8.27;;;;;;;;;;5069809;28;20029;-76
2022/11/07 06:36:55;;;;;;;16.75;7.20;;;;;;;;;;5066048;28;20080;-76
2022/11/07 06:39:21;;;;;;;22.73;7.82;;;;;;;;;;5068916;28;20067;-76
2022/11/07 06:41:48;;;;;;;18.75;7.28;;;;;;;;;;5056301;28;20397;-77
2022/11/07 06:44:15;;;;;;;18.70;7.57;;;;;;;;;;5053772;28;20123;-77
2022/11/07 06:46:41;;;;;;;18.55;7.55;;;;;;;;;;5040927;28;20401;-77
2022/11/07 06:49:07;;;;;;;20.15;6.55;;;;;;;;;;5048520;28;20055;-77
2022/11/07 06:51:33;;;;;;;20.73;7.32;;;;;;;;;;5072656;28;20047;-75
2022/11/07 06:53:59;;;;;;;18.95;7.93;;;;;;;;;;5096771;28;20047;-75
2022/11/07 06:56:25;;;;;;;18.98;7.20;;;;;;;;;;5069301;28;20048;-75
2022/11/07 06:58:52;;;;;;;22.73;7.28;;;;;;;;;;5040733;28;20141;-75
2022/11/07 07:01:18;;;;;;;18.52;7.25;;;;;;;;;;5060511;28;20037;-75
2022/11/07 07:03:44;;;;;;;22.17;7.40;;;;;;;;;;5038382;28;20114;-75
2022/11/07 07:06:12;;;;;;;22.27;7.20;;;;;;;;;;5048930;28;20049;-75
2022/11/07 07:08:38;;;;;;;23.35;7.88;;;;;;;;;;5041197;28;20087;-75
2022/11/07 07:11:05;;;;;;;22.95;7.93;;;;;;;;;;5072488;28;20044;-80
2022/11/07 07:13:32;;;;;;;22.52;7.90;;;;;;;;;;5067169;28;20062;-77
2022/11/07 07:15:58;;;;;;;16.45;7.78;;;;;;;;;;5044335;28;20408;-78
2022/11/07 07:18:25;;;;;;;19.85;7.85;;;;;;;;;;5072457;28;20044;-78
2022/11/07 07:20:51;;;;;;;15.50;7.10;;;;;;;;;;5053621;28;20414;-78
2022/11/07 07:23:19;;;;;;;26.85;8.80;;;;;;;;;;5051793;28;20037;-79
2022/11/07 07:25:45;;;;;;;26.48;6.82;;;;;;;;;;5034028;28;20084;-78
2022/11/07 07:28:11;;;;;;;20.73;7.35;;;;;;;;;;5049139;28;20477;-78
2022/11/07 07:30:37;;;;;;;17.23;7.03;;;;;;;;;;5050907;28;20098;-77
2022/11/07 07:33:03;;;;;;;22.25;6.75;;;;;;;;;;5050687;28;20048;-78
2022/11/07 07:35:30;;;;;;;21.45;7.35;;;;;;;;;;5051408;28;20033;-78
2022/11/07 07:37:56;;;;;;;19.95;7.20;;;;;;;;;;5051783;28;20048;-78
2022/11/07 07:40:22;;;;;;;19.63;6.60;;;;;;;;;;5068157;28;20048;-78
2022/11/07 07:42:48;;;;;;;16.58;6.80;;;;;;;;;;5067765;28;20151;-77
2022/11/07 07:45:15;;;;;;;23.17;7.25;;;;;;;;;;5051230;28;20406;-77
2022/11/07 07:47:41;;;;;;;20.63;7.32;;;;;;;;;;5051295;28;20428;-77
2022/11/07 07:50:08;;;;;;;22.75;7.20;;;;;;;;;;5051512;28;20509;-80
2022/11/07 07:52:34;;;;;;;20.67;7.40;;;;;;;;;;5051535;28;20045;-79
2022/11/07 07:55:00;;;;;;;22.85;6.57;;;;;;;;;;5051351;28;20037;-77
2022/11/07 07:57:26;;;;;;;17.05;6.63;;;;;;;;;;5051186;28;20055;-74
2022/11/07 07:59:52;;;;;;;17.48;6.90;;;;;;;;;;5050741;28;20049;-75
2022/11/07 08:02:19;;;;;;;15.60;6.53;;;;;;;;;;5051261;28;20040;-74
2022/11/07 08:04:45;;;;;;;17.85;6.60;;;;;;;;;;5048833;28;20501;-77
2022/11/07 08:07:11;;;;;;;22.58;6.80;;;;;;;;;;5051153;28;20045;-78
2022/11/07 08:09:37;;;;;;;20.30;6.35;;;;;;;;;;5040123;28;20053;-79
2022/11/07 08:12:04;;;;;;;19.55;5.97;;;;;;;;;;5057017;28;20041;-79
2022/11/07 08:14:30;;;;;;;21.15;6.05;;;;;;;;;;5058601;28;20111;-78
2022/11/07 08:16:56;;;;;;;19.25;5.95;;;;;;;;;;5065320;28;20049;-78
2022/11/07 08:19:22;;;;;;;16.35;5.32;;;;;;;;;;5101114;28;20092;-74
2022/11/07 08:21:48;;;;;;;16.70;5.07;;;;;;;;;;5055438;28;20037;-75
2022/11/07 08:24:14;;;;;;;19.10;5.53;;;;;;;;;;5047333;28;20076;-76
2022/11/07 08:26:41;;;;;;;15.05;4.80;;;;;;;;;;5071063;28;20036;-80
2022/11/07 08:29:07;;;;;;;16.27;5.47;;;;;;;;;;5057845;28;20045;-78
2022/11/07 08:31:33;;;;;;;12.73;5.07;;;;;;;;;;5053623;28;20106;-78
2022/11/07 08:33:59;;;;;;;13.45;5.55;;;;;;;;;;5050018;28;20036;-79
2022/11/07 08:36:26;;;;;;;18.73;4.80;;;;;;;;;;5030952;28;20119;-79
2022/11/07 08:38:52;;;;;;;21.42;5.40;;;;;;;;;;5050150;28;20076;-79
2022/11/07 08:41:19;;;;;;;15.32;5.13;;;;;;;;;;5050333;28;20068;-75
2022/11/07 08:43:45;;;;;;;18.70;5.07;;;;;;;;;;5050775;28;20538;-78
2022/11/07 08:46:11;;;;;;;18.80;5.72;;;;;;;;;;5050016;28;20083;-78
2022/11/07 08:48:38;;;;;;;14.40;5.00;;;;;;;;;;5050717;28;20049;-78
2022/11/07 08:51:05;;;;;;;13.68;4.80;;;;;;;;;;5050074;28;20051;-78
2022/11/07 08:53:31;;;;;;;20.88;6.47;;;;;;;;;;5050357;28;20041;-78
2022/11/07 08:56:08;;;;;;;17.05;4.97;;;;;;;;;;5049918;28;20118;-78
2022/11/07 08:58:34;;;;;;;15.02;5.25;;;;;;;;;;5048300;28;20057;-74
2022/11/07 09:01:01;;;;;;;12.25;5.10;;;;;;;;;;5053274;28;20045;-75
2022/11/07 09:03:27;;;;;;;18.48;5.60;;;;;;;;;;5054192;28;20508;-74
2022/11/07 09:05:56;;;;;;;18.15;5.10;;;;;;;;;;5037183;28;20033;-75
2022/11/07 09:08:23;;;;;;;15.25;4.80;;;;;;;;;;5035037;28;20058;-74
2022/11/07 09:10:49;;;;;;;16.13;5.47;;;;;;;;;;5048028;28;20112;-74
2022/11/07 09:13:15;;;;;;;15.70;4.72;;;;;;;;;;5055564;28;20048;-74
2022/11/07 09:15:41;;;;;;;16.73;5.13;;;;;;;;;;5032699;28;20496;-74
2022/11/07 09:18:07;;;;;;;14.88;5.07;;;;;;;;;;5052038;28;20044;-74
2022/11/07 09:20:33;;;;;;;17.10;5.32;;;;;;;;;;5049697;28;20033;-74
2022/11/07 09:22:59;;;;;;;12.82;4.60;;;;;;;;;;5053546;28;20040;-78
2022/11/07 09:25:26;;;;;;;23.33;6.57;;;;;;;;;;5054275;28;20049;-78
2022/11/07 09:27:52;;;;;;;15.88;4.80;;;;;;;;;;5053951;28;20036;-79
2022/11/07 09:30:19;;;;;;;12.65;4.50;;;;;;;;;;5037393;28;20079;-78
2022/11/07 09:32:45;;;;;;;14.50;4.85;;;;;;;;;;5052693;28;20098;-77
2022/11/07 09:35:11;;;;;;;13.38;4.85;;;;;;;;;;5036535;28;20485;-74
2022/11/07 09:37:38;;;;;;;15.57;4.97;;;;;;;;;;5036389;28;20045;-74
2022/11/07 09:40:04;;;;;;;14.40;4.72;;;;;;;;;;5044103;28;20044;-74
2022/11/07 09:42:37;;;;;;;14.38;4.63;;;;;;;;;;5040869;28;20081;-74
2022/11/07 09:45:03;;;;;;;14.23;4.10;;;;;;;;;;5052587;28;20049;-74
2022/11/07 09:47:47;;;;;;;15.27;5.20;;;;;;;;;;5016374;28;20052;-74
2022/11/07 09:50:15;;;;;;;14.35;4.80;;;;;;;;;;5041881;28;20128;-74
2022/11/07 09:52:41;;;;;;;16.90;4.60;;;;;;;;;;5036504;28;20128;-74
2022/11/07 09:55:14;;;;;;;13.68;4.60;;;;;;;;;;5053358;28;20036;-79
2022/11/07 09:57:40;;;;;;;17.25;4.63;;;;;;;;;;5037027;28;20056;-78
2022/11/07 10:00:10;;;;;;;12.25;4.57;;;;;;;;;;5053363;28;20053;-78
2022/11/07 10:02:40;;;;;;;18.40;4.57;;;;;;;;;;5053075;28;20075;-80
2022/11/07 10:05:06;;;;;;;14.82;4.10;;;;;;;;;;5053532;28;20402;-78
2022/11/07 10:07:35;;;;;;;11.52;4.20;;;;;;;;;;5036955;28;20052;-79
2022/11/07 10:10:05;;;;;;;16.30;4.00;;;;;;;;;;5036567;28;20041;-80
2022/11/07 10:12:37;;;;;;;13.07;3.90;;;;;;;;;;5058470;28;20101;-78
2022/11/07 10:15:19;;;;;;;14.65;4.30;;;;;;;;;;5065456;28;20497;-79
2022/11/07 10:17:48;;;;;;;16.70;4.80;;;;;;;;;;5046207;28;20045;-78
2022/11/07 10:20:17;;;;;;;17.63;3.92;;;;;;;;;;5073837;28;20052;-79
2022/11/07 10:22:46;;;;;;;16.58;4.68;;;;;;;;;;5073526;28;20044;-79
2022/11/07 10:25:15;;;;;;;15.68;4.50;;;;;;;;;;5049385;28;20104;-80
2022/11/07 10:27:43;;;;;;;17.45;4.13;;;;;;;;;;5057228;28;20115;-79
2022/11/07 10:30:15;;;;;;;14.15;3.80;;;;;;;;;;5051239;28;20041;-79
2022/11/07 10:32:57;;;;;;;15.30;3.75;;;;;;;;;;5057942;28;20568;-79
2022/11/07 10:35:26;;;;;;;12.75;3.90;;;;;;;;;;5044237;28;20049;-75
2022/11/07 10:37:54;;;;;;;11.45;3.58;;;;;;;;;;5052448;28;20037;-79
2022/11/07 10:40:23;;;;;;;11.90;3.50;;;;;;;;;;5051573;28;20426;-79
2022/11/07 10:42:50;;;;;;;11.13;3.80;;;;;;;;;;5052404;28;20576;-79
2022/11/07 10:45:17;;;;;;;12.93;4.03;;;;;;;;;;5049652;28;20099;-79
2022/11/07 10:47:54;;;;;;;14.88;3.60;;;;;;;;;;5035572;28;20484;-79
2022/11/07 10:50:21;;;;;;;13.10;4.00;;;;;;;;;;5052119;28;20045;-79
2022/11/07 10:52:58;;;;;;;12.10;3.78;;;;;;;;;;5052666;28;20482;-79
2022/11/07 10:55:25;;;;;;;14.80;3.47;;;;;;;;;;5052059;28;20072;-80
2022/11/07 10:57:53;;;;;;;11.73;3.67;;;;;;;;;;5049294;28;20045;-79
2022/11/07 11:00:21;;;;;;;13.93;3.60;;;;;;;;;;5052109;28;20036;-79
2022/11/07 11:02:48;;;;;;;12.90;4.22;;;;;;;;;;5035667;28;20044;-79
2022/11/07 11:05:33;;;;;;;9.18;3.53;;;;;;;;;;5051800;28;20047;-80
2022/11/07 11:08:13;;;;;;;13.15;4.05;;;;;;;;;;5051746;28;20052;-80
2022/11/07 11:10:39;;;;;;;13.13;3.60;;;;;;;;;;5046516;28;20043;-80
2022/11/07 11:13:06;;;;;;;12.07;4.55;;;;;;;;;;5062117;28;20044;-80
2022/11/07 11:15:42;;;;;;;12.85;3.63;;;;;;;;;;5063630;28;20102;-80
2022/11/07 11:18:15;;;;;;;11.60;3.40;;;;;;;;;;5036363;28;20431;-81
2022/11/07 11:20:44;;;;;;;9.43;3.30;;;;;;;;;;5059994;28;20045;-74
2022/11/07 11:23:22;;;;;;;11.70;4.07;;;;;;;;;;5082816;28;20533;-75
2022/11/07 11:25:49;;;;;;;7.68;3.42;;;;;;;;;;5051392;28;20045;-74
2022/11/07 11:28:36;;;;;;;11.18;3.35;;;;;;;;;;5035159;28;20436;-74
2022/11/07 11:31:04;;;;;;;9.18;3.30;;;;;;;;;;5052109;28;20482;-80
2022/11/07 11:33:42;;;;;;;12.93;3.78;;;;;;;;;;5051245;28;20037;-81
2022/11/07 11:36:12;;;;;;;9.80;3.00;;;;;;;;;;5051159;28;20045;-81
2022/11/07 11:38:38;;;;;;;10.68;2.90;;;;;;;;;;5050523;28;20074;-80
2022/11/07 11:41:12;;;;;;;12.68;3.08;;;;;;;;;;5027042;28;20074;-81
2022/11/07 11:43:43;;;;;;;16.92;3.35;;;;;;;;;;5046779;28;20075;-80
2022/11/07 11:46:28;;;;;;;9.10;3.25;;;;;;;;;;5051463;28;20036;-80
2022/11/07 11:49:17;;;;;;;11.65;2.60;;;;;;;;;;5072737;28;20029;-79
2022/11/07 11:52:05;;;;;;;8.25;2.67;;;;;;;;;;5071321;28;20061;-80
2022/11/07 11:54:33;;;;;;;9.88;2.70;;;;;;;;;;5062642;28;20040;-80
2022/11/07 11:57:02;;;;;;;10.90;3.28;;;;;;;;;;5051270;28;20036;-78
2022/11/07 11:59:28;;;;;;;8.43;2.42;;;;;;;;;;5034656;28;20045;-79
2022/11/07 12:02:20;;;;;;;9.50;2.95;;;;;;;;;;5052691;28;20516;-80
2022/11/07 12:05:05;;;;;;;6.90;2.67;;;;;;;;;;5082731;28;20140;-79
2022/11/07 12:07:31;;;;;;;9.23;2.35;;;;;;;;;;5051287;28;20606;-80
2022/11/07 12:10:05;;;;;;;11.82;3.28;;;;;;;;;;5035062;28;20048;-80
2022/11/07 12:12:55;;;;;;;7.65;2.70;;;;;;;;;;5051812;28;20037;-79
2022/11/07 12:15:40;;;;;;;9.30;2.50;;;;;;;;;;5051084;28;20123;-79
2022/11/07 12:18:29;;;;;;;11.63;3.10;;;;;;;;;;5060871;28;20040;-80
2022/11/07 12:21:14;;;;;;;13.25;3.03;;;;;;;;;;5056079;28;20033;-80
2022/11/07 12:23:40;;;;;;;7.55;2.90;;;;;;;;;;5062730;28;20094;-80
2022/11/07 12:26:19;;;;;;;11.05;3.00;;;;;;;;;;5048206;28;20033;-80
2022/11/07 12:28:57;;;;;;;11.85;3.20;;;;;;;;;;5050857;28;20041;-78
2022/11/07 12:31:42;;;;;;;9.63;3.20;;;;;;;;;;5049924;28;20041;-75
2022/11/07 12:34:26;;;;;;;12.43;3.30;;;;;;;;;;5067606;28;20041;-77
2022/11/07 12:37:01;;;;;;;9.57;3.22;;;;;;;;;;5055504;28;20087;-79
2022/11/07 12:39:30;;;;;;;14.55;3.33;;;;;;;;;;5053192;28;20032;-79
2022/11/07 12:42:07;;;;;;;10.35;3.20;;;;;;;;;;5045225;28;20456;-80
2022/11/07 12:44:42;;;;;;;11.27;3.33;;;;;;;;;;5037063;28;20044;-77
2022/11/07 12:47:26;;;;;;;13.15;3.35;;;;;;;;;;5060547;28;20125;-75
2022/11/07 12:50:08;;;;;;;15.57;3.70;;;;;;;;;;5067142;28;20049;-75
2022/11/07 12:52:41;;;;;;;14.65;3.55;;;;;;;;;;5061075;28;20414;-75
2022/11/07 12:55:16;;;;;;;11.80;3.08;;;;;;;;;;5058096;28;20117;-77
2022/11/07 12:57:42;;;;;;;13.82;3.03;;;;;;;;;;5059305;28;20051;-81
2022/11/07 13:00:18;;;;;;;11.73;3.17;;;;;;;;;;5045679;28;20115;-80
2022/11/07 13:02:53;;;;;;;10.68;3.30;;;;;;;;;;5065051;28;20052;-77
2022/11/07 13:05:35;;;;;;;9.93;3.15;;;;;;;;;;5069842;28;20043;-75
2022/11/07 13:08:04;;;;;;;10.32;3.45;;;;;;;;;;5058001;28;20049;-78
2022/11/07 13:10:30;;;;;;;14.73;3.58;;;;;;;;;;5067692;28;20036;-81
2022/11/07 13:13:07;;;;;;;13.50;3.60;;;;;;;;;;5055999;28;20060;-85
2022/11/07 13:15:33;;;;;;;9.70;3.25;;;;;;;;;;5040823;28;20076;-83
2022/11/07 13:17:59;;;;;;;10.15;3.33;;;;;;;;;;5067061;28;20036;-82
2022/11/07 13:20:30;;;;;;;9.23;3.10;;;;;;;;;;5039176;28;20095;-80
2022/11/07 13:23:00;;;;;;;14.10;3.38;;;;;;;;;;5067320;28;20378;-74
2022/11/07 13:25:30;;;;;;;13.20;3.70;;;;;;;;;;5064242;28;20048;-74
2022/11/07 13:27:56;;;;;;;11.23;3.40;;;;;;;;;;5060652;28;20048;-74
2022/11/07 13:30:43;;;;;;;15.02;3.60;;;;;;;;;;5064092;28;20051;-80
2022/11/07 13:33:09;;;;;;;;;;;;;;;;;;5052904;28;20045;-80
2022/11/07 13:35:36;;;;;;;12.55;3.45;;;;;;;;;;5038000;28;20297;-81
2022/11/07 13:38:02;;;;;;;12.73;3.50;;;;;;;;;;5080607;28;20036;-79
2022/11/07 13:40:34;;;;;;;13.40;3.97;;;;;;;;;;5067139;28;20044;-79
2022/11/07 13:43:14;;;;;;;14.57;3.60;;;;;;;;;;5067572;28;20068;-79
2022/11/07 13:45:40;;;;;;;17.60;3.60;;;;;;;;;;5056615;28;20036;-80
2022/11/07 13:48:12;;;;;;;12.73;3.55;;;;;;;;;;5039595;28;20039;-80
2022/11/07 13:50:40;;;;;;;15.23;3.50;;;;;;;;;;5052833;28;20127;-77
2022/11/07 13:53:12;;;;;;;15.80;4.00;;;;;;;;;;5054671;28;20037;-80
2022/11/07 13:55:44;;;;;;;14.75;4.05;;;;;;;;;;5052017;28;20124;-79
2022/11/07 13:58:13;;;;;;;15.98;3.72;;;;;;;;;;5052712;28;20140;-80
2022/11/07 14:00:40;;;;;;;13.10;3.85;;;;;;;;;;5052895;28;20132;-80
2022/11/07 14:03:06;;;;;;;13.10;4.03;;;;;;;;;;5036049;28;20045;-80
2022/11/07 14:05:34;;;;;;;12.63;4.22;;;;;;;;;;5049365;28;20041;-79
2022/11/07 14:08:05;;;;;;;16.08;4.20;;;;;;;;;;5053578;28;20186;-80
2022/11/07 14:10:37;;;;;;;15.60;4.57;;;;;;;;;;5052310;28;20040;-79
2022/11/07 14:13:07;;;;;;;20.10;4.47;;;;;;;;;;5056793;28;20041;-80
2022/11/07 14:15:34;;;;;;;15.18;4.53;;;;;;;;;;5053688;28;20402;-79
2022/11/07 14:18:00;;;;;;;13.60;4.18;;;;;;;;;;5052652;28;20509;-80
2022/11/07 14:20:26;;;;;;;18.50;4.55;;;;;;;;;;5052795;28;20130;-80
2022/11/07 14:22:54;;;;;;;14.38;4.50;;;;;;;;;;5036037;28;20416;-80
2022/11/07 14:25:22;;;;;;;14.70;3.90;;;;;;;;;;5052704;28;20041;-80
2022/11/07 14:27:49;;;;;;;9.15;3.80;;;;;;;;;;5052583;28;20128;-80
2022/11/07 14:30:16;;;;;;;18.35;4.32;;;;;;;;;;5053346;28;20087;-80
2022/11/07 14:32:50;;;;;;;18.05;4.53;;;;;;;;;;5035835;28;20041;-79
2022/11/07 14:35:30;;;;;;;14.98;4.32;;;;;;;;;;5036634;28;20393;-79
2022/11/07 14:37:57;;;;;;;12.75;3.42;;;;;;;;;;5085044;28;20036;-74
2022/11/07 14:40:23;;;;;;;17.23;4.72;;;;;;;;;;5048753;28;20033;-74
2022/11/07 14:42:50;;;;;;;13.20;3.75;;;;;;;;;;5051257;28;20047;-74
2022/11/07 14:45:18;;;;;;;12.18;3.80;;;;;;;;;;5052120;28;20460;-74
2022/11/07 14:47:44;;;;;;;17.15;4.60;;;;;;;;;;5051599;28;20055;-74
2022/11/07 14:50:15;;;;;;;16.08;4.40;;;;;;;;;;5036164;28;20041;-76